• Join FlightAware (Why Join?)
  • Login
  • US Flag 
11:45PM EDT


 

Airport Tracker/Info


-or-


 

Live Flight TrackerFlight Track Log ✈ N848TC ✈ 20-Jun-2013 ✈ KPIT - KCLE

Flight Track Log - Related Links

Times and Time Zones

All times are in EDT time to prevent confusion due to time zone crossing. See the N848TC flight status page for this flight to view local times or setup timezone preferences in your user account.

Time Position Orientation Groundspeed Altitude Reporting Facility
EDT Latitude Longitude Course Direction KTS MPH feet Rate Location/Type
03:13PM 40.5800 -80.4600 283° West 330 380 10,000  Level Cleveland Center
03:14PM 40.6008 -80.5914 282° West 335 386 10,000  Level Cleveland Center
03:15PM 40.6174 -80.8536 285° West  Level FlightAware Approximate
03:15PM 40.6217 -80.7061 283° West 335 386 10,000  Level Cleveland Center
03:16PM 40.6364 -80.9448 285° West  Level FlightAware Approximate
03:16PM 40.6403 -80.8211 282° West 335 386 10,000  Level Cleveland Center
03:17PM 40.6608 -80.9417 283° West 335 386 10,000  Level Cleveland Center
03:18PM 40.6811 -81.0622 283° West 335 386 10,000  Level Cleveland Center
03:19PM 40.7244 -81.1667 299° West 330 380 10,000  Level Cleveland Center
03:20PM 40.7675 -81.2686 299° West 324 373 10,000  Level Cleveland Center
03:21PM 40.8086 -81.3650 299° West 329 379 10,000  Level Cleveland Center
03:22PM 40.8517 -81.4697 299° West 329 379 10,000  Level Cleveland Center
03:23PM 40.9031 -81.5667 305° West 329 379 10,000  Level Cleveland Center
03:24PM 40.9775 -81.6364 325° Northwest 329 379 10,000 -240 Level Cleveland Center
03:25PM 41.0661 -81.7233 324° Northwest 328 377 9,600 -1,260 Descending Cleveland Center
03:26PM 41.1303 -81.7822 325° Northwest 284 327 7,400 -2,220 Descending Cleveland Center
03:27PM 41.1881 -81.8386 324° Northwest 291 335 5,400 -2,040 Descending Cleveland Center
03:28PM 41.2458 -81.8950 324° Northwest 271 312 3,600 -1,500 Descending Cleveland Center
03:29PM 41.3039 -81.9264 338° Northwest 240 276 2,500 -840 Descending Cleveland Center
03:30PM 41.3517 -81.9275 359° North 188 216 2,000 -660 Descending Cleveland Center
03:31PM 41.3897 -81.8922 35° Northeast 114 131 1,100 -720 Descending Cleveland Center
03:33PM 41.4000 -81.8500 72° East  Level FlightAware Approximate
03:40PM 41.4094 -81.8547 72° East  Level Estimated